Time;durP1;ratioP1;P1;durP2;ratioP2;P2;SDS_P1;SDS_P2;PMS_P1;PMS_P2;Temp;Humidity;BMP_temperature;BMP_pressure;BME280_temperature;BME280_humidity;BME280_pressure;Samples;Min_cycle;Max_cycle;Signal;HPM_P1;HPM_P2
2021/03/10 00:01:28;0.00;0.00;0.62;0.00;0.00;0.62;5.73;1.80;;;22.30;23.90;;;;;;2245598;61;20368;-61
2021/03/10 00:04:13;0.00;0.00;0.62;0.00;0.00;0.62;8.13;2.47;;;22.30;23.90;;;;;;2245305;61;20717;-59
2021/03/10 00:06:57;0.00;0.00;0.62;0.00;0.00;0.62;4.83;2.17;;;22.30;23.90;;;;;;2245134;61;20371;-59
2021/03/10 00:09:42;0.00;0.00;0.62;0.00;0.00;0.62;3.20;1.73;;;22.30;24.40;;;;;;2245570;61;20395;-59
2021/03/10 00:12:27;0.00;0.00;0.62;0.00;0.00;0.62;2.37;1.60;;;22.30;23.90;;;;;;2245229;61;20445;-59
2021/03/10 00:15:13;0.00;0.00;0.62;0.00;0.00;0.62;3.67;1.60;;;22.30;23.90;;;;;;2245311;61;20416;-59
2021/03/10 00:17:58;0.00;0.00;0.62;0.00;0.00;0.62;4.03;1.97;;;22.30;24.00;;;;;;2245535;61;20721;-59
2021/03/10 00:20:43;0.00;0.00;0.62;0.00;0.00;0.62;2.20;1.50;;;22.30;24.00;;;;;;2244835;61;20365;-59
2021/03/10 00:23:27;0.00;0.00;0.62;0.00;0.00;0.62;4.90;2.30;;;22.30;24.00;;;;;;2245456;61;20476;-59
2021/03/10 00:26:12;0.00;0.00;0.62;0.00;0.00;0.62;7.70;1.30;;;22.30;24.10;;;;;;2245247;61;20380;-60
2021/03/10 00:28:56;0.00;0.00;0.62;0.00;0.00;0.62;2.53;1.50;;;22.30;24.10;;;;;;2245173;61;20384;-60
2021/03/10 00:31:41;0.00;0.00;0.62;0.00;0.00;0.62;1.57;1.10;;;22.30;24.10;;;;;;2245572;61;20712;-60
2021/03/10 00:34:26;0.00;0.00;0.62;0.00;0.00;0.62;3.77;1.50;;;22.30;24.10;;;;;;2245300;61;20768;-59
2021/03/10 00:37:11;0.00;0.00;0.62;0.00;0.00;0.62;3.13;1.60;;;22.30;24.20;;;;;;2245396;61;20380;-58
2021/03/10 00:39:56;0.00;0.00;0.62;0.00;0.00;0.62;3.03;1.33;;;22.30;24.20;;;;;;2246260;61;20742;-64
2021/03/10 00:42:41;0.00;0.00;0.62;0.00;0.00;0.62;2.17;1.33;;;22.30;24.30;;;;;;2245444;61;20493;-59
2021/03/10 00:45:25;0.00;0.00;0.62;0.00;0.00;0.62;2.47;1.50;;;22.30;24.30;;;;;;2246059;61;20392;-60
2021/03/10 00:48:10;0.00;0.00;0.62;0.00;0.00;0.62;3.20;1.20;;;22.30;24.40;;;;;;2246123;61;20365;-61
2021/03/10 00:50:54;0.00;0.00;0.62;0.00;0.00;0.62;3.60;1.60;;;22.30;24.40;;;;;;2245997;61;20435;-58
2021/03/10 00:53:39;0.00;0.00;0.62;0.00;0.00;0.62;2.10;1.60;;;22.30;24.40;;;;;;2246361;61;20367;-58
2021/03/10 00:56:24;0.00;0.00;0.62;0.00;0.00;0.62;2.13;1.70;;;22.30;24.50;;;;;;2245897;61;20477;-58
2021/03/10 00:59:08;0.00;0.00;0.62;0.00;0.00;0.62;1.83;1.30;;;22.30;24.50;;;;;;2245888;61;20405;-58
2021/03/10 01:01:53;0.00;0.00;0.62;0.00;0.00;0.62;2.50;1.63;;;22.30;24.50;;;;;;2246377;61;20400;-54
2021/03/10 01:04:39;0.00;0.00;0.62;0.00;0.00;0.62;2.40;1.60;;;22.40;24.50;;;;;;2245073;61;20741;-58
2021/03/10 01:07:23;0.00;0.00;0.62;0.00;0.00;0.62;2.20;1.57;;;22.40;24.50;;;;;;2246131;61;20365;-59
2021/03/10 01:10:12;0.00;0.00;0.62;0.00;0.00;0.62;2.37;2.07;;;22.40;24.50;;;;;;2246454;61;20417;-57
2021/03/10 01:12:56;0.00;0.00;0.62;0.00;0.00;0.62;3.30;1.53;;;22.40;24.50;;;;;;2246075;61;20780;-57
2021/03/10 01:15:41;0.00;0.00;0.62;0.00;0.00;0.62;3.00;1.47;;;22.30;24.40;;;;;;2246369;61;20373;-55
2021/03/10 01:18:25;0.00;0.00;0.62;0.00;0.00;0.62;2.30;1.60;;;22.30;24.40;;;;;;2245550;61;20804;-54
2021/03/10 01:21:10;0.00;0.00;0.62;0.00;0.00;0.62;3.70;1.60;;;22.40;24.40;;;;;;2246185;61;20370;-56
2021/03/10 01:23:55;0.00;0.00;0.62;0.00;0.00;0.62;3.67;1.73;;;22.40;24.40;;;;;;2246474;61;20357;-58
2021/03/10 01:26:40;0.00;0.00;0.62;0.00;0.00;0.62;1.90;1.30;;;22.40;24.40;;;;;;2245412;61;20741;-56
2021/03/10 01:29:25;0.00;0.00;0.62;0.00;0.00;0.62;2.53;1.37;;;22.40;24.40;;;;;;2246298;61;20740;-56
2021/03/10 01:32:09;0.00;0.00;0.62;0.00;0.00;0.62;2.03;1.43;;;22.30;24.30;;;;;;2246266;61;20353;-59
2021/03/10 01:34:54;0.00;0.00;0.62;0.00;0.00;0.62;2.80;1.27;;;22.40;24.40;;;;;;2245812;61;20352;-57
2021/03/10 01:37:39;0.00;0.00;0.62;0.00;0.00;0.62;1.53;1.33;;;22.40;24.40;;;;;;2246352;61;20416;-57
2021/03/10 01:40:24;0.00;0.00;0.62;0.00;0.00;0.62;2.00;1.50;;;22.30;24.30;;;;;;2245126;61;20462;-53
2021/03/10 01:43:09;0.00;0.00;0.62;0.00;0.00;0.62;1.70;1.27;;;22.30;24.30;;;;;;2246128;61;20364;-57
2021/03/10 01:45:54;0.00;0.00;0.62;0.00;0.00;0.62;3.53;1.50;;;22.40;24.30;;;;;;2245872;61;20372;-57
2021/03/10 01:48:42;0.00;0.00;0.62;0.00;0.00;0.62;2.00;1.37;;;22.30;24.30;;;;;;2245197;61;20385;-59
2021/03/10 01:51:27;0.00;0.00;0.62;0.00;0.00;0.62;1.57;1.30;;;22.40;24.30;;;;;;2246013;61;20413;-55
2021/03/10 01:54:12;0.00;0.00;0.62;0.00;0.00;0.62;5.00;1.70;;;22.40;24.30;;;;;;2246179;61;20396;-58
2021/03/10 01:56:58;0.00;0.00;0.62;0.00;0.00;0.62;1.73;1.20;;;22.40;24.30;;;;;;2245787;61;20768;-52
2021/03/10 01:59:43;0.00;0.00;0.62;0.00;0.00;0.62;2.87;1.40;;;22.40;24.30;;;;;;2246054;61;20393;-57
2021/03/10 02:02:28;0.00;0.00;0.62;0.00;0.00;0.62;1.90;1.30;;;22.40;24.30;;;;;;2245657;61;20364;-57
2021/03/10 02:05:17;0.00;0.00;0.62;0.00;0.00;0.62;3.67;1.30;;;22.40;24.30;;;;;;2245948;61;20769;-55
2021/03/10 02:08:25;0.00;0.00;0.62;0.00;0.00;0.62;3.27;1.40;;;22.40;24.30;;;;;;2245942;61;20393;-55
2021/03/10 02:11:24;0.00;0.00;0.62;0.00;0.00;0.62;2.50;1.47;;;22.40;24.30;;;;;;2245587;61;20367;-59
2021/03/10 02:14:20;0.00;0.00;0.62;0.00;0.00;0.62;2.00;1.37;;;22.40;24.30;;;;;;2245971;61;20402;-56
2021/03/10 02:17:13;0.00;0.00;0.62;0.00;0.00;0.62;1.70;1.00;;;22.40;24.30;;;;;;2245959;61;20403;-59
2021/03/10 02:20:19;0.00;0.00;0.62;0.00;0.00;0.62;1.67;1.10;;;22.30;24.20;;;;;;2245934;61;20389;-55
2021/03/10 02:23:27;0.00;0.00;0.62;0.00;0.00;0.62;1.40;1.10;;;22.40;24.30;;;;;;2246155;61;20412;-56
2021/03/10 02:26:48;0.00;0.00;0.62;0.00;0.00;0.62;2.00;1.27;;;22.40;24.30;;;;;;2245441;61;20398;-59
2021/03/10 02:29:37;0.00;0.00;0.62;0.00;0.00;0.62;1.70;1.20;;;22.40;24.30;;;;;;2245412;61;20389;-56
2021/03/10 02:32:22;0.00;0.00;0.62;0.00;0.00;0.62;1.90;1.20;;;22.40;24.30;;;;;;2245433;61;20369;-56
2021/03/10 02:35:10;0.00;0.00;0.62;0.00;0.00;0.62;1.53;1.23;;;22.40;24.30;;;;;;2245952;61;20484;-58
2021/03/10 02:37:58;0.00;0.00;0.62;0.00;0.00;0.62;1.50;1.30;;;22.40;24.30;;;;;;2245922;61;20399;-58
2021/03/10 02:40:45;0.00;0.00;0.62;0.00;0.00;0.62;1.70;1.47;;;22.40;24.30;;;;;;2245443;61;20384;-58
2021/03/10 02:43:29;0.00;0.00;0.62;0.00;0.00;0.62;1.50;1.10;;;22.40;24.30;;;;;;2245765;61;20393;-58
2021/03/10 02:46:16;0.00;0.00;0.62;0.00;0.00;0.62;2.70;1.80;;;22.40;24.30;;;;;;2246107;61;20350;-58
2021/03/10 02:49:02;0.00;0.00;0.62;0.00;0.00;0.62;1.50;1.20;;;22.40;24.30;;;;;;2245553;61;20396;-56
2021/03/10 02:51:47;0.00;0.00;0.62;0.00;0.00;0.62;1.90;1.50;;;22.40;24.30;;;;;;2245949;61;20407;-57
2021/03/10 02:54:32;0.00;0.00;0.62;0.00;0.00;0.62;2.10;1.90;;;22.40;24.30;;;;;;2245539;61;20412;-58
2021/03/10 02:57:17;0.00;0.00;0.62;0.00;0.00;0.62;2.17;1.73;;;22.40;24.20;;;;;;2245650;61;20441;-58
2021/03/10 03:00:07;0.00;0.00;0.62;0.00;0.00;0.62;1.80;1.20;;;22.40;24.20;;;;;;2245958;61;20387;-57
2021/03/10 03:02:52;0.00;0.00;0.62;0.00;0.00;0.62;1.70;1.20;;;22.40;24.20;;;;;;2245386;61;20365;-56
2021/03/10 03:05:37;0.00;0.00;0.62;0.00;0.00;0.62;1.80;1.30;;;22.40;24.20;;;;;;2245651;61;20589;-55
2021/03/10 03:08:22;0.00;0.00;0.62;0.00;0.00;0.62;1.43;1.10;;;22.40;24.20;;;;;;2245944;61;20423;-58
2021/03/10 03:11:11;0.00;0.00;0.62;0.00;0.00;0.62;1.80;1.47;;;22.40;24.20;;;;;;2245441;61;20624;-58
2021/03/10 03:13:56;0.00;0.00;0.62;0.00;0.00;0.62;1.70;1.23;;;22.40;24.20;;;;;;2246096;61;20408;-54
2021/03/10 03:16:43;0.00;0.00;0.62;0.00;0.00;0.62;1.87;1.30;;;22.40;24.20;;;;;;2245213;61;20460;-53
2021/03/10 03:19:28;0.00;0.00;0.62;0.00;0.00;0.62;1.83;1.40;;;22.40;24.20;;;;;;2245738;61;20389;-55
2021/03/10 03:22:14;0.00;0.00;0.62;0.00;0.00;0.62;1.80;1.33;;;22.40;24.20;;;;;;2245746;61;20361;-58
2021/03/10 03:24:59;0.00;0.00;0.62;0.00;0.00;0.62;1.80;1.20;;;22.40;24.40;;;;;;2245632;61;20464;-59
2021/03/10 03:27:48;0.00;0.00;0.62;0.00;0.00;0.62;3.57;1.20;;;22.40;24.20;;;;;;2245633;61;20621;-57
2021/03/10 03:30:35;0.00;0.00;0.62;0.00;0.00;0.62;4.00;3.33;;;22.40;24.80;;;;;;2245993;61;20476;-55
2021/03/10 03:33:23;0.00;0.00;0.62;0.00;0.00;0.62;3.63;2.90;;;22.40;24.10;;;;;;2245488;61;20399;-54
2021/03/10 03:36:10;0.00;0.00;0.62;0.00;0.00;0.62;3.97;3.17;;;22.40;24.00;;;;;;2246063;61;20387;-57
2021/03/10 03:38:55;0.00;0.00;0.62;0.00;0.00;0.62;3.10;2.30;;;22.40;24.00;;;;;;2245368;61;20505;-57
2021/03/10 03:41:40;0.00;0.00;0.62;0.00;0.00;0.62;2.30;1.80;;;22.40;24.00;;;;;;2245635;61;20373;-58
2021/03/10 03:44:25;0.00;0.00;0.62;0.00;0.00;0.62;17.77;3.73;;;22.40;24.00;;;;;;2245973;61;20374;-54
2021/03/10 03:47:12;0.00;0.00;0.62;0.00;0.00;0.62;3.20;2.67;;;22.40;24.00;;;;;;2244897;61;20393;-55
2021/03/10 03:49:57;0.00;0.00;0.62;0.00;0.00;0.62;2.10;1.57;;;22.40;24.00;;;;;;2245724;61;20744;-57
2021/03/10 03:52:44;0.00;0.00;0.62;0.00;0.00;0.62;4.17;2.97;;;22.40;24.00;;;;;;2245903;61;20369;-57
2021/03/10 03:55:28;0.00;0.00;0.62;0.00;0.00;0.62;4.30;3.60;;;22.40;24.00;;;;;;2245354;61;20373;-57
2021/03/10 03:58:13;0.00;0.00;0.62;0.00;0.00;0.62;4.53;3.30;;;22.40;24.00;;;;;;2245727;61;20605;-57
2021/03/10 04:00:58;0.00;0.00;0.62;0.00;0.00;0.62;5.50;4.43;;;22.40;24.00;;;;;;2245329;61;20368;-57
2021/03/10 04:03:44;0.00;0.00;0.62;0.00;0.00;0.62;9.03;4.53;;;22.40;23.90;;;;;;2245581;61;20371;-58
2021/03/10 04:06:28;0.00;0.00;0.62;0.00;0.00;0.62;8.13;6.00;;;22.40;23.90;;;;;;2245804;61;20364;-55
2021/03/10 04:09:14;0.00;0.00;0.62;0.00;0.00;0.62;5.83;5.00;;;22.40;23.80;;;;;;2245127;61;20422;-57
2021/03/10 04:12:02;0.00;0.00;0.62;0.00;0.00;0.62;6.87;5.60;;;22.40;23.80;;;;;;2245803;61;20372;-56
2021/03/10 04:14:46;0.00;0.00;0.62;0.00;0.00;0.62;7.67;6.17;;;22.40;23.70;;;;;;2246632;61;20361;-56
2021/03/10 04:17:31;0.00;0.00;0.62;0.00;0.00;0.62;8.23;7.40;;;22.30;23.70;;;;;;2245870;61;20439;-58
2021/03/10 04:20:18;0.00;0.00;0.62;0.00;0.00;0.62;8.70;7.23;;;22.30;23.60;;;;;;2246020;61;20379;-52
2021/03/10 04:23:02;0.00;0.00;0.62;0.00;0.00;0.62;8.13;7.23;;;22.30;23.60;;;;;;2246231;61;20392;-58
2021/03/10 04:25:48;0.00;0.00;0.62;0.00;0.00;0.62;8.30;7.20;;;22.30;23.60;;;;;;2245814;61;20440;-57
2021/03/10 04:28:32;0.00;0.00;0.62;0.00;0.00;0.62;9.07;7.40;;;22.30;23.50;;;;;;2245968;61;20428;-57
2021/03/10 04:31:17;0.00;0.00;0.62;0.00;0.00;0.62;9.93;8.17;;;22.30;23.50;;;;;;2245865;61;20372;-55
2021/03/10 04:34:01;0.00;0.00;0.62;0.00;0.00;0.62;8.67;7.40;;;22.30;23.50;;;;;;2245904;61;20357;-54
2021/03/10 04:36:46;0.00;0.00;0.62;0.00;0.00;0.62;9.47;7.70;;;22.30;23.50;;;;;;2246129;61;20389;-56
2021/03/10 04:39:30;0.00;0.00;0.62;0.00;0.00;0.62;14.80;8.30;;;22.20;23.40;;;;;;2245274;61;20777;-58
2021/03/10 04:42:16;0.00;0.00;0.62;0.00;0.00;0.62;9.10;7.23;;;22.20;23.40;;;;;;2245886;61;20367;-57
2021/03/10 04:45:01;0.00;0.00;0.62;0.00;0.00;0.62;11.93;8.63;;;22.20;23.40;;;;;;2246024;61;20372;-58
2021/03/10 04:47:46;0.00;0.00;0.62;0.00;0.00;0.62;11.60;8.20;;;22.20;23.40;;;;;;2245771;61;20395;-57
2021/03/10 04:50:31;0.00;0.00;0.62;0.00;0.00;0.62;11.17;9.00;;;22.20;23.40;;;;;;2245995;61;20372;-58
2021/03/10 04:53:15;0.00;0.00;0.62;0.00;0.00;0.62;14.17;8.90;;;22.10;23.40;;;;;;2245645;61;20371;-57
2021/03/10 04:56:00;0.00;0.00;0.62;0.00;0.00;0.62;10.70;8.57;;;22.10;23.40;;;;;;2245692;61;20356;-58
2021/03/10 04:58:45;0.00;0.00;0.62;0.00;0.00;0.62;11.97;8.33;;;22.10;23.40;;;;;;2245878;61;20609;-56
2021/03/10 05:01:30;0.00;0.00;0.62;0.00;0.00;0.62;12.17;9.40;;;22.00;23.30;;;;;;2245642;61;20361;-55
2021/03/10 05:04:14;0.00;0.00;0.62;0.00;0.00;0.62;13.07;9.27;;;22.00;23.30;;;;;;2245951;61;20617;-58
2021/03/10 05:06:59;0.00;0.00;0.62;0.00;0.00;0.62;11.57;9.20;;;22.00;23.30;;;;;;2246123;61;20367;-52
2021/03/10 05:09:43;0.00;0.00;0.62;0.00;0.00;0.62;11.77;8.70;;;22.00;23.30;;;;;;2246141;61;20396;-58
2021/03/10 05:12:30;0.00;0.00;0.62;0.00;0.00;0.62;11.80;10.10;;;22.00;23.30;;;;;;2245819;61;20369;-57
2021/03/10 05:15:16;0.00;0.00;0.62;0.00;0.00;0.62;10.87;8.93;;;22.00;23.30;;;;;;2245866;61;20372;-58
2021/03/10 05:18:00;0.00;0.00;0.62;0.00;0.00;0.62;12.83;9.13;;;21.90;23.30;;;;;;2245859;61;20492;-52
2021/03/10 05:20:45;0.00;0.00;0.62;0.00;0.00;0.62;13.33;10.07;;;21.90;23.30;;;;;;2246249;61;20408;-56
2021/03/10 05:23:29;0.00;0.00;0.62;0.00;0.00;0.62;12.33;9.93;;;21.90;23.30;;;;;;2245292;61;20396;-58
2021/03/10 05:26:14;0.00;0.00;0.62;0.00;0.00;0.62;13.43;9.23;;;21.90;23.30;;;;;;2245948;61;20380;-55
2021/03/10 05:28:59;0.00;0.00;0.62;0.00;0.00;0.62;11.57;10.03;;;21.90;23.30;;;;;;2246111;61;20445;-57
2021/03/10 05:31:44;0.00;0.00;0.62;0.00;0.00;0.62;14.10;10.17;;;21.90;23.30;;;;;;2245780;61;20365;-58
2021/03/10 05:34:28;0.00;0.00;0.62;0.00;0.00;0.62;11.73;8.93;;;21.80;23.20;;;;;;2246407;61;20715;-58
2021/03/10 05:37:13;0.00;0.00;0.62;0.00;0.00;0.62;14.93;10.77;;;21.80;23.20;;;;;;2245731;61;20489;-58
2021/03/10 05:39:57;0.00;0.00;0.62;0.00;0.00;0.62;13.27;9.10;;;21.80;23.30;;;;;;2245508;61;20465;-58
2021/03/10 05:42:42;0.00;0.00;0.62;0.00;0.00;0.62;15.60;9.10;;;21.80;23.30;;;;;;2246132;61;20818;-57
2021/03/10 05:45:27;0.00;0.00;0.62;0.00;0.00;0.62;12.50;10.00;;;21.80;23.20;;;;;;2245802;61;20387;-55
2021/03/10 05:48:12;0.00;0.00;0.62;0.00;0.00;0.62;11.67;9.47;;;21.70;23.20;;;;;;2245692;61;20368;-55
2021/03/10 05:50:57;0.00;0.00;0.62;0.00;0.00;0.62;17.27;10.97;;;21.70;23.20;;;;;;2246132;61;20505;-53
2021/03/10 05:53:44;0.00;0.00;0.62;0.00;0.00;0.62;13.03;10.30;;;21.70;23.20;;;;;;2245962;61;20399;-51
2021/03/10 05:56:29;0.00;0.00;0.62;0.00;0.00;0.62;12.17;10.00;;;21.70;23.20;;;;;;2245625;61;20430;-54
2021/03/10 05:59:13;0.00;0.00;0.62;0.00;0.00;0.62;12.90;10.13;;;21.70;23.20;;;;;;2245611;61;20431;-55
2021/03/10 06:01:58;0.00;0.00;0.62;0.00;0.00;0.62;12.60;9.80;;;21.70;23.20;;;;;;2245807;61;20363;-52
2021/03/10 06:04:43;0.00;0.00;0.62;0.00;0.00;0.62;13.50;9.80;;;21.60;23.10;;;;;;2246015;61;20368;-51
2021/03/10 06:07:30;0.00;0.00;0.62;0.00;0.00;0.62;13.00;10.93;;;21.60;23.10;;;;;;2245590;61;20365;-56
2021/03/10 06:10:15;0.00;0.00;0.62;0.00;0.00;0.62;10.97;9.27;;;21.60;23.10;;;;;;2245765;61;20423;-53
2021/03/10 06:12:59;0.00;0.00;0.62;0.00;0.00;0.62;15.80;11.10;;;21.60;23.10;;;;;;2246045;61;20779;-54
2021/03/10 06:15:44;0.00;0.00;0.62;0.00;0.00;0.62;15.67;10.87;;;21.60;23.10;;;;;;2245686;61;20365;-51
2021/03/10 06:18:31;0.00;0.00;0.62;0.00;0.00;0.62;13.70;10.20;;;21.60;23.10;;;;;;2245666;61;20766;-53
2021/03/10 06:21:18;0.00;0.00;0.62;0.00;0.00;0.62;11.23;8.87;;;21.50;23.10;;;;;;2245842;61;20581;-55
2021/03/10 06:24:04;0.00;0.00;0.62;0.00;0.00;0.62;11.67;9.57;;;21.50;23.10;;;;;;2245774;61;20376;-57
2021/03/10 06:26:54;0.00;0.00;0.62;0.00;0.00;0.62;9.30;8.40;;;21.50;23.10;;;;;;2245832;61;20392;-52
2021/03/10 06:29:38;0.00;0.00;0.62;0.00;0.00;0.62;11.90;9.90;;;21.50;23.20;;;;;;2245540;61;20388;-55
2021/03/10 06:32:23;0.00;0.00;0.62;0.00;0.00;0.62;11.33;9.50;;;21.50;23.10;;;;;;2245659;61;20347;-56
2021/03/10 06:35:09;0.00;0.00;0.62;0.00;0.00;0.62;11.33;8.90;;;21.40;23.10;;;;;;2245846;61;20388;-54
2021/03/10 06:38:12;0.00;0.00;0.62;0.00;0.00;0.62;11.90;9.90;;;21.40;23.10;;;;;;2245087;61;20616;-53
2021/03/10 06:40:58;0.00;0.00;0.62;0.00;0.00;0.62;12.63;9.43;;;21.40;23.10;;;;;;2245670;61;20368;-53
2021/03/10 06:43:43;0.00;0.00;0.62;0.00;0.00;0.62;10.93;9.10;;;21.40;23.10;;;;;;2245530;61;20630;-53
2021/03/10 06:46:28;0.00;0.00;0.62;0.00;0.00;0.62;10.50;9.13;;;21.40;23.10;;;;;;2245473;61;20370;-56
2021/03/10 06:49:14;0.00;0.00;0.62;0.00;0.00;0.62;10.77;9.13;;;21.40;23.10;;;;;;2245921;61;20387;-55
2021/03/10 06:52:00;0.00;0.00;0.62;0.00;0.00;0.62;9.80;8.80;;;21.40;23.10;;;;;;2245650;61;20408;-55
2021/03/10 06:54:54;0.00;0.00;0.62;0.00;0.00;0.62;11.93;9.20;;;21.40;23.10;;;;;;2245584;61;20471;-56
2021/03/10 06:57:43;0.00;0.00;0.62;0.00;0.00;0.62;11.60;9.20;;;21.30;23.10;;;;;;2245917;61;20565;-56
2021/03/10 07:00:28;0.00;0.00;0.62;0.00;0.00;0.62;14.13;8.90;;;21.30;23.10;;;;;;2245199;61;20408;-56
2021/03/10 07:03:13;0.00;0.00;0.62;0.00;0.00;0.62;10.10;9.03;;;21.30;23.10;;;;;;2245829;61;20361;-58
2021/03/10 07:06:01;0.00;0.00;0.62;0.00;0.00;0.62;10.60;9.50;;;21.30;23.10;;;;;;2245046;61;20431;-57
2021/03/10 07:08:48;0.00;0.00;0.62;0.00;0.00;0.62;11.00;8.00;;;21.30;23.10;;;;;;2244976;61;20454;-57
2021/03/10 07:11:35;0.00;0.00;0.62;0.00;0.00;0.62;11.97;8.70;;;21.30;23.10;;;;;;2245454;61;20440;-57
2021/03/10 07:14:21;0.00;0.00;0.62;0.00;0.00;0.62;9.37;8.13;;;21.30;23.10;;;;;;2245415;61;20396;-53
2021/03/10 07:17:06;0.00;0.00;0.62;0.00;0.00;0.62;9.93;8.10;;;21.30;23.10;;;;;;2245444;61;20422;-55
2021/03/10 07:19:51;0.00;0.00;0.62;0.00;0.00;0.62;11.23;8.10;;;21.30;23.10;;;;;;2245427;61;20470;-57
2021/03/10 07:22:44;0.00;0.00;0.62;0.00;0.00;0.62;8.30;6.50;;;21.20;23.10;;;;;;2245415;61;20439;-54
2021/03/10 07:25:32;0.00;0.00;0.62;0.00;0.00;0.62;9.00;8.10;;;21.20;23.10;;;;;;2245768;61;20446;-54
2021/03/10 07:28:26;0.00;0.00;0.62;0.00;0.00;0.62;9.10;7.90;;;21.20;23.10;;;;;;2245172;61;20658;-56
2021/03/10 07:31:21;0.00;0.00;0.62;0.00;0.00;0.62;10.20;7.43;;;21.20;23.10;;;;;;2245504;61;20374;-58
2021/03/10 07:34:05;0.00;0.00;0.62;0.00;0.00;0.62;9.73;8.20;;;21.20;23.10;;;;;;2245885;61;20365;-57
2021/03/10 07:36:50;0.00;0.00;0.62;0.00;0.00;0.62;10.13;8.27;;;21.20;23.10;;;;;;2245158;61;20372;-58
2021/03/10 07:39:34;0.00;0.00;0.62;0.00;0.00;0.62;9.00;7.60;;;21.20;23.20;;;;;;2245134;61;20431;-53
2021/03/10 07:42:20;0.00;0.00;0.62;0.00;0.00;0.62;9.40;8.00;;;21.20;23.20;;;;;;2245800;61;20447;-59
2021/03/10 07:45:07;0.00;0.00;0.62;0.00;0.00;0.62;8.07;7.27;;;21.20;23.10;;;;;;2245570;61;20368;-56
2021/03/10 07:47:55;0.00;0.00;0.62;0.00;0.00;0.62;9.27;7.37;;;21.20;23.20;;;;;;2245776;61;20373;-54
2021/03/10 07:50:43;0.00;0.00;0.62;0.00;0.00;0.62;10.47;8.43;;;21.20;23.10;;;;;;2244790;61;20356;-55
2021/03/10 07:53:36;0.00;0.00;0.62;0.00;0.00;0.62;9.30;7.70;;;21.20;23.20;;;;;;2245487;61;20381;-57
2021/03/10 07:56:29;0.00;0.00;0.62;0.00;0.00;0.62;10.30;7.73;;;21.20;23.20;;;;;;2245720;61;20431;-58
2021/03/10 07:59:15;0.00;0.00;0.62;0.00;0.00;0.62;10.23;8.50;;;21.10;23.10;;;;;;2245262;61;20463;-57
2021/03/10 08:02:03;0.00;0.00;0.62;0.00;0.00;0.62;8.90;7.27;;;21.10;23.10;;;;;;2245612;61;20367;-56
2021/03/10 08:04:56;0.00;0.00;0.62;0.00;0.00;0.62;9.73;8.73;;;21.10;23.10;;;;;;2245656;61;20487;-57
2021/03/10 08:07:40;0.00;0.00;0.62;0.00;0.00;0.62;10.00;7.77;;;21.10;23.10;;;;;;2245370;61;20399;-55
2021/03/10 08:10:25;0.00;0.00;0.62;0.00;0.00;0.62;8.70;7.77;;;21.10;23.10;;;;;;2245680;61;20635;-56
2021/03/10 08:13:15;0.00;0.00;0.62;0.00;0.00;0.62;11.27;10.07;;;21.10;23.10;;;;;;2245210;61;20365;-56
2021/03/10 08:16:01;0.00;0.00;0.62;0.00;0.00;0.62;10.37;8.70;;;21.10;23.10;;;;;;2245479;61;20588;-57
2021/03/10 08:18:47;0.00;0.00;0.62;0.00;0.00;0.62;8.80;7.90;;;21.10;23.10;;;;;;2245538;61;20764;-55
2021/03/10 08:21:32;0.00;0.00;0.62;0.00;0.00;0.62;9.80;8.10;;;21.10;23.10;;;;;;2245294;61;20376;-55
2021/03/10 08:24:17;0.00;0.00;0.62;0.00;0.00;0.62;11.57;8.60;;;21.10;23.10;;;;;;2245420;61;20367;-59
2021/03/10 08:27:04;0.00;0.00;0.62;0.00;0.00;0.62;9.50;8.50;;;21.00;23.00;;;;;;2245383;61;20371;-56
2021/03/10 08:29:49;0.00;0.00;0.62;0.00;0.00;0.62;9.23;7.93;;;21.00;23.10;;;;;;2242786;61;20399;-58
2021/03/10 08:32:35;0.00;0.00;0.62;0.00;0.00;0.62;10.37;8.53;;;21.00;23.10;;;;;;2245063;61;20371;-58
2021/03/10 08:35:22;0.00;0.00;0.62;0.00;0.00;0.62;11.20;9.07;;;21.00;23.10;;;;;;2245509;61;20376;-52
2021/03/10 08:38:06;0.00;0.00;0.62;0.00;0.00;0.62;9.43;8.33;;;21.10;23.20;;;;;;2245534;61;20383;-57
2021/03/10 08:40:51;0.00;0.00;0.62;0.00;0.00;0.62;9.27;8.20;;;21.00;23.10;;;;;;2245641;61;20525;-51
2021/03/10 08:43:35;0.00;0.00;0.62;0.00;0.00;0.62;9.07;8.10;;;21.00;23.10;;;;;;2244907;61;20392;-53
2021/03/10 08:46:20;0.00;0.00;0.62;0.00;0.00;0.62;10.27;8.67;;;21.10;23.60;;;;;;2245402;61;20580;-55
2021/03/10 08:49:17;0.00;0.00;0.62;0.00;0.00;0.62;13.97;8.60;;;21.00;23.00;;;;;;2245542;61;20392;-56
2021/03/10 08:52:13;0.00;0.00;0.62;0.00;0.00;0.62;9.43;8.37;;;21.10;23.10;;;;;;2244962;61;20384;-56
2021/03/10 08:55:02;0.00;0.00;0.62;0.00;0.00;0.62;8.33;6.80;;;21.00;23.10;;;;;;2245166;61;20493;-56
2021/03/10 08:57:47;0.00;0.00;0.62;0.00;0.00;0.62;7.90;6.50;;;21.10;23.20;;;;;;2245362;61;20394;-56
2021/03/10 09:00:33;0.00;0.00;0.62;0.00;0.00;0.62;8.60;7.20;;;21.00;23.10;;;;;;2245588;61;20693;-56
2021/03/10 09:03:20;0.00;0.00;0.62;0.00;0.00;0.62;9.43;8.53;;;21.10;23.40;;;;;;2246327;61;20414;-56
2021/03/10 09:06:09;0.00;0.00;0.62;0.00;0.00;0.62;9.17;7.73;;;21.00;23.20;;;;;;2246014;61;20448;-58
2021/03/10 09:08:54;0.00;0.00;0.62;0.00;0.00;0.62;10.50;7.90;;;21.10;23.20;;;;;;2246219;61;20408;-58
2021/03/10 09:11:39;0.00;0.00;0.62;0.00;0.00;0.62;9.17;7.60;;;21.10;23.20;;;;;;2246062;61;20361;-57
2021/03/10 09:14:41;0.00;0.00;0.62;0.00;0.00;0.62;9.10;8.20;;;21.10;23.70;;;;;;2245837;61;20574;-53
2021/03/10 09:17:31;0.00;0.00;0.62;0.00;0.00;0.62;9.27;7.60;;;21.10;23.20;;;;;;2245866;61;20396;-56
2021/03/10 09:20:24;0.00;0.00;0.62;0.00;0.00;0.62;11.43;8.53;;;21.10;23.20;;;;;;2245660;61;20646;-59
2021/03/10 09:23:11;0.00;0.00;0.62;0.00;0.00;0.62;10.13;8.00;;;21.10;23.20;;;;;;2245439;61;20413;-55
2021/03/10 09:26:00;0.00;0.00;0.62;0.00;0.00;0.62;10.07;8.03;;;21.10;23.20;;;;;;2245759;61;20371;-54
2021/03/10 09:29:05;0.00;0.00;0.62;0.00;0.00;0.62;9.60;8.30;;;21.10;23.20;;;;;;2245938;61;20393;-59
2021/03/10 09:31:57;0.00;0.00;0.62;0.00;0.00;0.62;10.03;8.90;;;21.10;23.10;;;;;;2246101;61;20407;-56
2021/03/10 09:34:54;0.00;0.00;0.62;0.00;0.00;0.62;9.73;8.60;;;21.10;23.10;;;;;;2245423;61;20413;-56
2021/03/10 09:37:49;0.00;0.00;0.62;0.00;0.00;0.62;13.30;10.00;;;21.10;23.00;;;;;;2245437;61;20414;-59
2021/03/10 09:40:39;0.00;0.00;0.62;0.00;0.00;0.62;9.77;8.00;;;21.20;23.00;;;;;;2245536;61;20788;-56
2021/03/10 09:43:28;0.00;0.00;0.62;0.00;0.00;0.62;9.23;8.10;;;21.10;23.00;;;;;;2245477;61;20412;-56
2021/03/10 09:46:13;0.00;0.00;0.62;0.00;0.00;0.62;7.73;6.53;;;21.10;23.00;;;;;;2245687;61;20431;-59
2021/03/10 09:49:03;0.00;0.00;0.62;0.00;0.00;0.62;6.77;5.70;;;21.10;23.10;;;;;;2245321;61;20477;-58
2021/03/10 09:51:49;0.00;0.00;0.62;0.00;0.00;0.62;7.50;5.43;;;21.10;23.10;;;;;;2245676;61;20588;-54
2021/03/10 09:54:54;0.00;0.00;0.62;0.00;0.00;0.62;12.63;5.57;;;21.20;23.20;;;;;;2245720;61;20403;-56
2021/03/10 09:57:43;0.00;0.00;0.62;0.00;0.00;0.62;6.50;5.30;;;21.20;23.20;;;;;;2245291;61;20662;-57
2021/03/10 10:00:29;0.00;0.00;0.62;0.00;0.00;0.62;7.47;4.90;;;21.20;23.20;;;;;;2245356;61;20398;-60
2021/03/10 10:03:25;0.00;0.00;0.62;0.00;0.00;0.62;6.03;5.43;;;21.20;23.20;;;;;;2245724;61;20570;-59
2021/03/10 10:06:15;0.00;0.00;0.62;0.00;0.00;0.62;4.87;4.37;;;21.20;23.20;;;;;;2245314;61;20429;-57
2021/03/10 10:09:04;0.00;0.00;0.62;0.00;0.00;0.62;4.67;3.63;;;21.20;23.20;;;;;;2245939;61;20607;-60
2021/03/10 10:11:51;0.00;0.00;0.62;0.00;0.00;0.62;6.00;4.23;;;21.20;23.30;;;;;;2245431;61;20399;-54
2021/03/10 10:14:38;0.00;0.00;0.62;0.00;0.00;0.62;4.60;4.00;;;21.30;23.40;;;;;;2245386;61;20369;-55
2021/03/10 10:17:23;0.00;0.00;0.62;0.00;0.00;0.62;5.50;4.50;;;21.20;23.30;;;;;;2245576;61;20430;-56
2021/03/10 10:20:12;0.00;0.00;0.62;0.00;0.00;0.62;4.90;4.07;;;21.30;23.40;;;;;;2244553;61;20391;-54
2021/03/10 10:22:58;0.00;0.00;0.62;0.00;0.00;0.62;4.97;4.10;;;21.30;23.40;;;;;;2242933;61;20405;-58
2021/03/10 10:25:46;0.00;0.00;0.62;0.00;0.00;0.62;4.97;3.40;;;21.30;23.40;;;;;;2245423;61;20384;-55
2021/03/10 10:28:31;0.00;0.00;0.62;0.00;0.00;0.62;4.73;3.27;;;21.30;23.50;;;;;;2245351;61;20375;-60
2021/03/10 10:31:17;0.00;0.00;0.62;0.00;0.00;0.62;4.90;3.43;;;21.30;23.50;;;;;;2245430;61;20371;-58
2021/03/10 10:34:03;0.00;0.00;0.62;0.00;0.00;0.62;4.63;3.43;;;21.30;23.50;;;;;;2245140;61;20624;-56
2021/03/10 10:36:47;0.00;0.00;0.62;0.00;0.00;0.62;4.00;3.10;;;21.40;23.60;;;;;;2245637;61;20389;-56
2021/03/10 10:39:32;0.00;0.00;0.62;0.00;0.00;0.62;6.17;5.40;;;21.40;23.60;;;;;;2245555;61;20551;-60
2021/03/10 10:42:17;0.00;0.00;0.62;0.00;0.00;0.62;4.00;3.57;;;21.40;23.60;;;;;;2245281;61;20368;-59
2021/03/10 10:45:03;0.00;0.00;0.62;0.00;0.00;0.62;6.83;4.07;;;21.40;23.60;;;;;;2245328;61;20400;-58
2021/03/10 10:47:51;0.00;0.00;0.62;0.00;0.00;0.62;4.30;3.40;;;21.40;23.60;;;;;;2245554;61;20363;-60
2021/03/10 10:50:43;0.00;0.00;0.62;0.00;0.00;0.62;4.60;3.40;;;21.50;23.70;;;;;;2245334;61;20489;-55
2021/03/10 10:53:28;0.00;0.00;0.62;0.00;0.00;0.62;3.50;3.20;;;21.50;23.70;;;;;;2246026;61;20420;-61
2021/03/10 10:56:13;0.00;0.00;0.62;0.00;0.00;0.62;3.73;3.37;;;21.50;23.70;;;;;;2245140;61;20489;-60